createdAt,value
2017-09-29T00:00:41.579Z,14.6
2017-09-29T00:01:51.599Z,14.53
2017-09-29T00:03:01.637Z,14.61
2017-09-29T00:04:11.981Z,14.56
2017-09-29T00:05:22.330Z,14.52
2017-09-29T00:06:32.667Z,14.53
2017-09-29T00:07:44.162Z,14.49
2017-09-29T00:08:54.184Z,14.57
2017-09-29T00:10:04.522Z,14.51
2017-09-29T00:11:14.986Z,14.51
2017-09-29T00:12:25.344Z,14.52
2017-09-29T00:13:35.698Z,14.48
2017-09-29T00:14:45.716Z,14.44
2017-09-29T00:15:55.808Z,14.44
2017-09-29T00:17:05.837Z,14.45
2017-09-29T00:18:16.158Z,14.3
2017-09-29T00:19:26.511Z,14.36
2017-09-29T00:20:36.841Z,14.26
2017-09-29T00:21:47.257Z,14.27
2017-09-29T00:22:57.295Z,14.26
2017-09-29T00:24:07.642Z,14.28
2017-09-29T00:25:17.985Z,14.2
2017-09-29T00:26:28.326Z,14.2
2017-09-29T00:27:38.345Z,14.15
2017-09-29T00:28:48.691Z,14.21
2017-09-29T00:29:59.040Z,14.19
2017-09-29T00:31:08.742Z,14.19
2017-09-29T00:32:19.235Z,14.19
2017-09-29T00:33:28.991Z,14.23
2017-09-29T00:34:39.331Z,14.16
2017-09-29T00:35:49.363Z,14.19
2017-09-29T00:36:59.706Z,14.19
2017-09-29T00:38:10.887Z,14.16
2017-09-29T00:39:21.235Z,14.21
2017-09-29T00:40:31.271Z,14.15
2017-09-29T00:41:41.646Z,14.19
2017-09-29T00:42:51.984Z,14.13
2017-09-29T00:44:02.347Z,14.2
2017-09-29T00:45:12.432Z,14.16
2017-09-29T00:46:22.451Z,14.15
2017-09-29T00:47:32.484Z,14.11
2017-09-29T00:48:42.814Z,14.15
2017-09-29T00:49:53.165Z,14.13
2017-09-29T00:51:03.539Z,14.08
2017-09-29T00:52:13.869Z,14.02
2017-09-29T00:53:24.195Z,14.05
2017-09-29T00:54:34.528Z,14.01
2017-09-29T00:55:44.866Z,14.09
2017-09-29T00:56:54.878Z,14.05
2017-09-29T00:58:05.220Z,14.06
2017-09-29T00:59:15.560Z,14.08
2017-09-29T01:00:25.609Z,14.13
2017-09-29T01:01:35.949Z,14.03
2017-09-29T01:02:46.286Z,14.05
2017-09-29T01:03:56.622Z,14.06
2017-09-29T01:05:06.964Z,13.99
2017-09-29T01:06:16.679Z,14.03
2017-09-29T01:07:26.703Z,13.99
2017-09-29T01:08:37.045Z,13.97
2017-09-29T01:09:47.065Z,13.97
2017-09-29T01:10:57.411Z,14.02
2017-09-29T01:12:07.441Z,14.02
2017-09-29T01:13:17.788Z,13.93
2017-09-29T01:14:27.819Z,13.91
2017-09-29T01:15:37.832Z,13.93
2017-09-29T01:16:48.168Z,13.97
2017-09-29T01:17:58.198Z,13.93
2017-09-29T01:19:08.531Z,13.87
2017-09-29T01:20:18.878Z,13.93
2017-09-29T01:21:28.896Z,13.88
2017-09-29T01:22:39.236Z,13.91
2017-09-29T01:23:49.597Z,13.97
2017-09-29T01:24:59.921Z,13.93
2017-09-29T01:26:10.309Z,13.87
2017-09-29T01:27:20.009Z,13.91
2017-09-29T01:28:29.714Z,13.88
2017-09-29T01:29:40.049Z,13.93
2017-09-29T01:30:50.079Z,13.86
2017-09-29T01:32:00.461Z,13.99
2017-09-29T01:33:10.532Z,13.94
2017-09-29T01:34:20.875Z,13.9
2017-09-29T01:35:30.904Z,13.93
2017-09-29T01:36:41.227Z,13.84
2017-09-29T01:37:51.269Z,13.81
2017-09-29T01:39:01.296Z,13.75
2017-09-29T01:40:11.313Z,13.78
2017-09-29T01:41:21.664Z,13.75
2017-09-29T01:42:31.691Z,13.75
2017-09-29T01:43:42.033Z,13.76
2017-09-29T01:44:52.055Z,13.75
2017-09-29T01:46:02.084Z,13.63
2017-09-29T01:47:12.418Z,13.72
2017-09-29T01:48:24.108Z,13.72
2017-09-29T01:49:34.132Z,13.72
2017-09-29T01:50:44.468Z,13.65
2017-09-29T01:51:54.806Z,13.66
2017-09-29T01:53:05.150Z,13.58
2017-09-29T01:54:15.168Z,13.65
2017-09-29T01:55:26.202Z,13.63
2017-09-29T01:56:36.540Z,13.65
2017-09-29T01:57:46.805Z,13.58
2017-09-29T01:58:57.156Z,13.54
2017-09-29T02:00:07.508Z,13.62
2017-09-29T02:01:17.892Z,13.57
2017-09-29T02:02:28.226Z,13.62
2017-09-29T02:03:38.250Z,13.54
2017-09-29T02:04:48.286Z,13.62
2017-09-29T02:05:58.315Z,13.55
2017-09-29T02:07:08.392Z,13.66
2017-09-29T02:08:18.727Z,13.48
2017-09-29T02:09:29.093Z,13.62
2017-09-29T02:10:39.108Z,13.51
2017-09-29T02:11:49.443Z,13.6
2017-09-29T02:12:59.835Z,13.53
2017-09-29T02:14:10.167Z,13.6
2017-09-29T02:15:20.513Z,13.55
2017-09-29T02:16:30.845Z,13.53
2017-09-29T02:17:40.872Z,13.58
2017-09-29T02:18:51.202Z,13.54
2017-09-29T02:20:01.526Z,13.65
2017-09-29T02:21:11.538Z,13.63
2017-09-29T02:22:21.560Z,13.63
2017-09-29T02:23:31.579Z,13.65
2017-09-29T02:24:41.989Z,13.63
2017-09-29T02:25:52.329Z,13.65
2017-09-29T02:27:02.660Z,13.63
2017-09-29T02:28:13.015Z,13.58
2017-09-29T02:29:23.055Z,13.55
2017-09-29T02:30:33.432Z,13.57
2017-09-29T02:31:43.449Z,13.53
2017-09-29T02:32:53.474Z,13.47
2017-09-29T02:34:03.499Z,13.45
2017-09-29T02:35:13.841Z,13.48
2017-09-29T02:36:24.221Z,13.42
2017-09-29T02:37:34.242Z,13.51
2017-09-29T02:38:44.583Z,13.32
2017-09-29T02:39:54.618Z,13.44
2017-09-29T02:41:04.644Z,13.32
2017-09-29T02:42:14.966Z,13.36
2017-09-29T02:43:24.989Z,13.35
2017-09-29T02:44:35.018Z,13.24
2017-09-29T02:45:45.342Z,13.28
2017-09-29T02:46:55.724Z,13.32
2017-09-29T02:48:05.789Z,13.37
2017-09-29T02:49:15.804Z,13.32
2017-09-29T02:50:25.842Z,13.35
2017-09-29T02:51:36.178Z,13.31
2017-09-29T02:52:46.209Z,13.32
2017-09-29T02:53:56.542Z,13.32
2017-09-29T02:55:06.932Z,13.27
2017-09-29T02:56:17.282Z,13.37
2017-09-29T02:57:27.622Z,13.24
2017-09-29T02:58:37.955Z,13.31
2017-09-29T02:59:48.283Z,13.31
2017-09-29T03:00:58.615Z,13.25
2017-09-29T03:02:08.964Z,13.32
2017-09-29T03:34:13.985Z,9.9
2017-09-29T03:35:24.310Z,9.75
2017-09-29T03:36:34.647Z,9.84
2017-09-29T03:37:44.653Z,9.84
2017-09-29T03:38:54.989Z,9.82
2017-09-29T03:40:04.423Z,9.93
2017-09-29T03:41:14.747Z,10.05
2017-09-29T03:42:24.778Z,10.14
2017-09-29T03:43:34.776Z,10.26
2017-09-29T03:44:44.812Z,10.41
2017-09-29T03:45:54.875Z,10.58
2017-09-29T03:47:05.216Z,10.79
2017-09-29T03:48:15.219Z,10.8
2017-09-29T03:49:25.549Z,11.02
2017-09-29T03:50:35.877Z,11.18
2017-09-29T03:51:45.940Z,11.18
2017-09-29T03:52:56.265Z,11.3
2017-09-29T03:54:06.287Z,11.38
2017-09-29T03:55:16.610Z,11.46
2017-09-29T03:56:26.991Z,11.63
2017-09-29T03:57:37.062Z,11.7
2017-09-29T03:58:47.431Z,11.76
2017-09-29T03:59:57.758Z,11.79
2017-09-29T04:01:07.777Z,11.89
2017-09-29T04:02:18.108Z,11.97
2017-09-29T04:03:28.169Z,12.08
2017-09-29T04:04:38.200Z,12.22
2017-09-29T04:05:48.230Z,12.13
2017-09-29T04:06:58.262Z,12.29
2017-09-29T04:08:08.289Z,12.36
2017-09-29T04:09:18.682Z,12.36
2017-09-29T04:10:29.027Z,12.26
2017-09-29T04:11:39.388Z,12.33
2017-09-29T04:12:49.733Z,12.41
2017-09-29T04:14:00.060Z,12.38
2017-09-29T04:15:10.079Z,12.45
2017-09-29T04:16:20.085Z,12.41
2017-09-29T04:17:30.121Z,12.47
2017-09-29T04:18:40.478Z,12.52
2017-09-29T04:19:50.816Z,12.55
2017-09-29T04:21:00.884Z,12.61
2017-09-29T04:22:11.220Z,12.58
2017-09-29T04:23:21.264Z,12.59
2017-09-29T04:24:31.282Z,12.59
2017-09-29T04:25:41.634Z,12.63
2017-09-29T04:26:52.015Z,12.69
2017-09-29T04:28:02.356Z,12.76
2017-09-29T04:29:12.687Z,12.84
2017-09-29T04:30:23.023Z,12.76
2017-09-29T04:31:33.048Z,12.86
2017-09-29T04:32:43.062Z,12.77
2017-09-29T04:33:53.415Z,12.77
2017-09-29T04:35:03.770Z,12.83
2017-09-29T04:36:14.117Z,12.81
2017-09-29T04:37:24.476Z,12.8
2017-09-29T04:38:34.534Z,12.8
2017-09-29T04:39:44.923Z,12.76
2017-09-29T04:40:54.933Z,12.84
2017-09-29T04:42:04.963Z,12.77
2017-09-29T04:43:15.301Z,12.73
2017-09-29T04:44:25.655Z,12.81
2017-09-29T04:45:36.029Z,12.83
2017-09-29T04:46:46.047Z,12.74
2017-09-29T04:47:56.403Z,12.7
2017-09-29T04:49:06.731Z,12.73
2017-09-29T04:50:17.127Z,12.76
2017-09-29T04:51:27.468Z,12.8
2017-09-29T04:52:37.480Z,12.76
2017-09-29T04:53:47.505Z,12.78
2017-09-29T04:54:57.834Z,12.84
2017-09-29T04:56:07.857Z,12.86
2017-09-29T04:57:18.209Z,12.86
2017-09-29T04:58:28.564Z,12.91
2017-09-29T04:59:38.910Z,12.81
2017-09-29T05:00:49.236Z,12.89
2017-09-29T05:01:59.264Z,12.89
2017-09-29T05:03:08.978Z,12.94
2017-09-29T05:04:19.316Z,13.01
2017-09-29T05:05:29.016Z,13.01
2017-09-29T05:06:39.383Z,12.95
2017-09-29T05:07:49.462Z,13.07
2017-09-29T05:08:59.171Z,13.07
2017-09-29T05:10:09.198Z,13.11
2017-09-29T05:11:19.517Z,13.14
2017-09-29T05:12:29.251Z,13.14
2017-09-29T05:13:39.590Z,13.17
2017-09-29T05:14:49.920Z,13.21
2017-09-29T05:16:00.245Z,13.21
2017-09-29T05:17:10.637Z,13.31
2017-09-29T05:18:20.980Z,13.27
2017-09-29T05:19:31.002Z,13.29
2017-09-29T05:20:41.352Z,13.31
2017-09-29T05:21:51.714Z,13.32
2017-09-29T05:23:02.054Z,13.37
2017-09-29T05:24:12.397Z,13.32
2017-09-29T05:25:22.779Z,13.44
2017-09-29T05:26:33.114Z,13.45
2017-09-29T05:27:43.458Z,13.51
2017-09-29T05:28:53.492Z,13.57
2017-09-29T05:30:03.831Z,13.6
2017-09-29T05:31:13.895Z,13.65
2017-09-29T05:32:24.239Z,13.58
2017-09-29T05:33:34.563Z,13.63
2017-09-29T05:34:44.914Z,13.68
2017-09-29T05:35:54.629Z,13.72
2017-09-29T05:37:04.955Z,13.73
2017-09-29T05:38:14.979Z,13.9
2017-09-29T05:39:24.999Z,13.91
2017-09-29T05:40:35.349Z,13.93
2017-09-29T05:41:45.359Z,13.99
2017-09-29T05:42:55.388Z,14.06
2017-09-29T05:44:05.750Z,14.03
2017-09-29T05:45:16.078Z,14.19
2017-09-29T05:46:26.412Z,14.21
2017-09-29T05:47:36.441Z,14.24
2017-09-29T05:48:46.795Z,14.31
2017-09-29T05:49:57.133Z,14.44
2017-09-29T05:51:07.485Z,14.44
2017-09-29T05:52:17.827Z,14.51
2017-09-29T05:53:27.854Z,14.52
2017-09-29T05:54:38.200Z,14.56
2017-09-29T05:55:48.227Z,14.66
2017-09-29T05:56:57.933Z,14.63
2017-09-29T05:58:08.265Z,14.7
2017-09-29T05:59:18.606Z,14.77
2017-09-29T06:00:28.962Z,14.89
2017-09-29T06:01:38.976Z,14.82
2017-09-29T06:02:49.312Z,15.02
2017-09-29T06:03:59.658Z,15.07
2017-09-29T06:05:10.015Z,15.1
2017-09-29T06:06:19.713Z,15.1
2017-09-29T06:07:30.047Z,15.22
2017-09-29T06:08:40.378Z,15.35
2017-09-29T06:09:50.719Z,15.3
2017-09-29T06:11:01.046Z,15.31
2017-09-29T06:12:11.428Z,15.31
2017-09-29T06:13:21.773Z,15.44
2017-09-29T06:14:31.822Z,15.44
2017-09-29T06:15:42.208Z,15.45
2017-09-29T06:16:52.217Z,15.51
2017-09-29T06:18:02.239Z,15.52
2017-09-29T06:19:12.585Z,15.53
2017-09-29T06:20:22.598Z,15.53
2017-09-29T06:21:32.964Z,15.56
2017-09-29T06:22:43.317Z,15.67
2017-09-29T06:23:53.341Z,15.68
2017-09-29T06:25:03.358Z,15.73
2017-09-29T06:26:13.724Z,15.83
2017-09-29T06:27:24.064Z,15.84
2017-09-29T06:28:34.412Z,15.92
2017-09-29T06:29:44.757Z,15.95
2017-09-29T06:30:55.130Z,16.02
2017-09-29T06:32:05.462Z,16.06
2017-09-29T06:33:15.870Z,16.17
2017-09-29T06:34:25.883Z,16.17
2017-09-29T06:35:36.228Z,16.29
2017-09-29T06:36:46.258Z,16.3
2017-09-29T06:37:56.595Z,16.37
2017-09-29T06:39:06.938Z,16.36
2017-09-29T06:40:16.964Z,16.4
2017-09-29T06:41:27.321Z,16.42
2017-09-29T06:42:37.667Z,16.45
2017-09-29T06:43:48.004Z,16.47
2017-09-29T06:44:58.403Z,16.44
2017-09-29T06:46:08.777Z,16.57
2017-09-29T06:47:19.125Z,16.58
2017-09-29T06:48:29.463Z,16.59
2017-09-29T06:49:39.800Z,16.55
2017-09-29T06:50:50.201Z,16.69
2017-09-29T06:52:00.218Z,16.72
2017-09-29T06:53:10.249Z,16.72
2017-09-29T06:54:20.599Z,16.84
2017-09-29T06:55:30.923Z,16.91
2017-09-29T06:56:40.999Z,17
2017-09-29T06:57:51.045Z,17.07
2017-09-29T06:59:01.402Z,17.21
2017-09-29T07:00:11.737Z,17.18
2017-09-29T07:01:21.436Z,17.12
2017-09-29T07:02:31.463Z,17.24
2017-09-29T07:03:41.510Z,17.27
2017-09-29T07:04:52.766Z,17.22
2017-09-29T07:06:02.870Z,17.31
2017-09-29T07:07:13.201Z,17.45
2017-09-29T07:08:23.255Z,17.47
2017-09-29T07:09:33.584Z,17.54
2017-09-29T07:10:43.940Z,17.55
2017-09-29T07:11:53.972Z,17.52
2017-09-29T07:13:04.305Z,17.54
2017-09-29T07:14:14.699Z,17.69
2017-09-29T07:15:25.046Z,17.71
2017-09-29T07:16:35.071Z,17.81
2017-09-29T07:17:45.415Z,17.88
2017-09-29T07:18:55.760Z,17.86
2017-09-29T07:20:06.159Z,18.02
2017-09-29T07:21:16.490Z,18.06
2017-09-29T07:22:26.493Z,18.17
2017-09-29T07:23:36.522Z,18.17
2017-09-29T07:24:46.856Z,18.24
2017-09-29T07:25:56.895Z,18.27
2017-09-29T07:27:07.238Z,18.47
2017-09-29T07:28:17.586Z,18.42
2017-09-29T07:29:27.930Z,18.49
2017-09-29T07:30:38.275Z,18.54
2017-09-29T07:31:48.331Z,18.59
2017-09-29T07:32:58.663Z,18.63
2017-09-29T07:34:08.709Z,18.74
2017-09-29T07:35:19.062Z,18.71
2017-09-29T07:36:29.401Z,18.78
2017-09-29T07:37:39.791Z,18.86
2017-09-29T07:38:49.827Z,18.9
2017-09-29T07:40:00.163Z,18.89
2017-09-29T07:41:10.502Z,18.99
2017-09-29T07:42:20.893Z,19.09
2017-09-29T07:43:30.604Z,19.09
2017-09-29T07:44:40.951Z,19.2
2017-09-29T07:45:52.482Z,19.3
2017-09-29T07:47:03.176Z,19.38
2017-09-29T07:48:13.548Z,19.49
2017-09-29T07:49:25.348Z,19.47
2017-09-29T07:50:35.408Z,19.63
2017-09-29T07:51:45.747Z,19.79
2017-09-29T07:52:55.765Z,19.87
2017-09-29T07:54:06.130Z,19.97
2017-09-29T07:55:16.212Z,20.01
2017-09-29T07:56:26.560Z,20.12
2017-09-29T07:57:37.216Z,20.23
2017-09-29T07:58:47.551Z,20.29
2017-09-29T07:59:57.891Z,20.42
2017-09-29T08:01:07.987Z,20.38
2017-09-29T08:02:18.007Z,20.42
2017-09-29T08:03:28.344Z,20.4
2017-09-29T08:04:38.676Z,20.49
2017-09-29T08:05:48.692Z,20.46
2017-09-29T08:06:59.078Z,20.46
2017-09-29T08:08:09.423Z,20.48
2017-09-29T08:09:19.752Z,20.64
2017-09-29T08:10:30.084Z,20.66
2017-09-29T08:11:40.433Z,20.72
2017-09-29T08:12:50.514Z,20.75
2017-09-29T08:14:00.890Z,20.88
2017-09-29T08:15:11.237Z,20.94
2017-09-29T08:16:21.271Z,21.08
2017-09-29T08:17:31.616Z,20.98
2017-09-29T08:18:41.957Z,21.11
2017-09-29T08:19:51.998Z,21.21
2017-09-29T08:21:02.350Z,21.21
2017-09-29T08:22:12.693Z,21.22
2017-09-29T08:23:23.032Z,21.31
2017-09-29T08:24:33.435Z,21.37
2017-09-29T08:25:43.773Z,21.46
2017-09-29T08:26:54.115Z,21.46
2017-09-29T08:28:04.460Z,21.52
2017-09-29T08:29:14.489Z,21.61
2017-09-29T08:30:24.856Z,21.68
2017-09-29T08:31:35.211Z,21.64
2017-09-29T08:32:45.257Z,21.71
2017-09-29T08:33:55.610Z,21.76
2017-09-29T08:35:05.657Z,21.89
2017-09-29T08:36:15.789Z,21.9
2017-09-29T08:37:26.120Z,21.92
2017-09-29T08:38:36.490Z,21.94
2017-09-29T08:39:46.517Z,22.02
2017-09-29T08:40:56.537Z,22
2017-09-29T08:42:06.933Z,22.08
2017-09-29T08:43:17.263Z,22.16
2017-09-29T08:44:27.607Z,22.26
2017-09-29T08:45:37.953Z,22.3
2017-09-29T08:46:47.668Z,22.38
2017-09-29T08:47:58.015Z,22.46
2017-09-29T08:49:08.361Z,22.49
2017-09-29T08:50:18.414Z,22.57
2017-09-29T08:51:28.821Z,22.69
2017-09-29T08:52:39.162Z,22.7
2017-09-29T08:53:49.559Z,22.76
2017-09-29T08:54:59.902Z,22.85
2017-09-29T08:56:10.253Z,23.03
2017-09-29T08:57:20.601Z,23
2017-09-29T08:58:30.951Z,22.94
2017-09-29T08:59:41.243Z,22.97
2017-09-29T09:00:51.613Z,22.99
2017-09-29T09:02:02.004Z,22.91
2017-09-29T09:03:12.353Z,23
2017-09-29T09:04:22.380Z,23.01
2017-09-29T09:05:32.795Z,22.91
2017-09-29T09:06:42.821Z,22.96
2017-09-29T09:07:53.200Z,23
2017-09-29T09:09:03.802Z,23.04
2017-09-29T09:10:14.169Z,23.15
2017-09-29T09:11:24.578Z,23.16
2017-09-29T09:12:34.944Z,23.25
2017-09-29T09:13:44.984Z,23.28
2017-09-29T09:14:55.340Z,23.28
2017-09-29T09:16:05.677Z,23.34
2017-09-29T09:17:16.078Z,23.38
2017-09-29T09:18:26.418Z,23.41
2017-09-29T09:19:36.452Z,23.45
2017-09-29T09:20:46.828Z,23.55
2017-09-29T09:21:57.187Z,23.55
2017-09-29T09:23:07.542Z,23.57
2017-09-29T09:24:17.975Z,23.57
2017-09-29T09:25:28.316Z,23.53
2017-09-29T09:26:38.674Z,23.55
2017-09-29T09:27:49.031Z,23.62
2017-09-29T09:28:59.408Z,23.55
2017-09-29T09:30:09.742Z,23.59
2017-09-29T09:31:19.778Z,23.56
2017-09-29T09:32:30.134Z,23.52
2017-09-29T09:33:40.474Z,23.6
2017-09-29T09:34:50.816Z,23.56
2017-09-29T09:36:01.168Z,23.66
2017-09-29T09:37:11.521Z,23.66
2017-09-29T09:38:21.929Z,23.66
2017-09-29T09:39:32.254Z,23.66
2017-09-29T09:40:42.616Z,23.78
2017-09-29T09:41:52.956Z,23.82
2017-09-29T09:43:03.004Z,23.79
2017-09-29T09:44:12.078Z,23.84
2017-09-29T09:45:22.423Z,23.92
2017-09-29T09:46:32.475Z,23.9
2017-09-29T09:47:42.836Z,23.96
2017-09-29T09:48:52.548Z,23.99
2017-09-29T09:50:02.634Z,24
2017-09-29T09:51:12.663Z,23.96
2017-09-29T09:52:23.013Z,23.96
2017-09-29T09:53:33.365Z,23.99
2017-09-29T09:54:43.715Z,24.02
2017-09-29T09:55:54.062Z,23.99
2017-09-29T09:57:04.095Z,24.04
2017-09-29T09:58:27.175Z,24.17
2017-09-29T10:22:58.493Z,24.66
2017-09-29T10:24:11.014Z,24.58
2017-09-29T10:25:22.307Z,24.67
2017-09-29T10:26:33.394Z,24.64
2017-09-29T10:27:44.749Z,24.7
2017-09-29T10:28:55.546Z,24.7
2017-09-29T10:30:06.593Z,24.69
2017-09-29T10:31:16.934Z,24.67
2017-09-29T10:32:27.272Z,24.77
2017-09-29T10:33:41.298Z,24.71
2017-09-29T10:51:45.176Z,24.85
2017-09-29T10:52:55.525Z,24.9
2017-09-29T10:57:55.521Z,24.86
2017-09-29T10:59:07.766Z,24.89
2017-09-29T11:00:18.660Z,24.89
2017-09-29T11:01:28.684Z,24.92
2017-09-29T11:02:39.060Z,24.93
2017-09-29T11:03:49.396Z,25.01
2017-09-29T11:04:59.413Z,25.05
2017-09-29T11:06:09.450Z,25.07
2017-09-29T11:07:19.476Z,25.11
2017-09-29T11:08:29.823Z,25.09
2017-09-29T11:09:41.209Z,25.17
2017-09-29T11:10:51.227Z,25.09
2017-09-29T11:12:02.463Z,25.14
2017-09-29T11:13:14.891Z,25.08
2017-09-29T11:14:24.965Z,25.3
2017-09-29T11:15:34.991Z,25.23
2017-09-29T11:16:45.827Z,25.34
2017-09-29T11:17:56.168Z,25.32
2017-09-29T11:19:07.425Z,25.26
2017-09-29T11:20:17.834Z,25.32
2017-09-29T11:21:27.871Z,25.38
2017-09-29T11:22:38.235Z,25.45
2017-09-29T11:23:49.701Z,25.48
2017-09-29T11:24:59.745Z,25.41
2017-09-29T11:26:10.100Z,25.41
2017-09-29T11:27:20.443Z,25.42
2017-09-29T11:28:30.813Z,25.41
2017-09-29T11:29:41.675Z,25.47
2017-09-29T11:30:52.808Z,25.49
2017-09-29T11:32:03.153Z,25.54
2017-09-29T11:33:13.501Z,25.56
2017-09-29T11:34:23.848Z,25.59
2017-09-29T11:35:33.555Z,25.57
2017-09-29T11:36:43.607Z,25.56
2017-09-29T11:37:53.989Z,25.59
2017-09-29T11:39:03.694Z,25.56
2017-09-29T11:40:14.048Z,25.59
2017-09-29T11:41:24.377Z,25.66
2017-09-29T11:42:34.740Z,25.59
2017-09-29T11:43:44.773Z,25.7
2017-09-29T11:44:55.102Z,25.6
2017-09-29T11:46:04.849Z,25.67
2017-09-29T11:47:14.886Z,25.64
2017-09-29T11:48:25.231Z,25.74
2017-09-29T11:49:35.588Z,25.7
2017-09-29T11:50:45.937Z,25.74
2017-09-29T11:51:56.303Z,25.71
2017-09-29T11:53:06.661Z,25.75
2017-09-29T11:54:17.002Z,25.71
2017-09-29T11:55:27.038Z,25.74
2017-09-29T11:56:37.392Z,25.76
2017-09-29T11:57:47.747Z,25.93
2017-09-29T11:58:58.113Z,25.88
2017-09-29T12:00:08.170Z,26.01
2017-09-29T12:01:18.562Z,25.89
2017-09-29T12:02:28.585Z,26.04
2017-09-29T12:03:39.577Z,25.99
2017-09-29T12:04:50.107Z,26
2017-09-29T12:06:00.511Z,25.96
2017-09-29T12:07:10.917Z,26
2017-09-29T12:08:21.259Z,26.06
2017-09-29T12:09:31.863Z,26.06
2017-09-29T12:10:41.907Z,26.12
2017-09-29T12:11:52.264Z,26.11
2017-09-29T12:13:02.639Z,26.06
2017-09-29T12:14:13.245Z,25.99
2017-09-29T12:15:24.610Z,26
2017-09-29T12:16:34.973Z,25.91
2017-09-29T12:17:45.352Z,25.91
2017-09-29T12:18:55.754Z,25.96
2017-09-29T12:20:06.160Z,25.91
2017-09-29T12:21:19.497Z,25.93
2017-09-29T12:22:33.959Z,25.99
2017-09-29T12:23:47.836Z,25.94
2017-09-29T12:25:02.412Z,25.97
2017-09-29T12:26:15.136Z,26
2017-09-29T12:27:25.509Z,25.99
2017-09-29T12:28:35.889Z,26.01
2017-09-29T12:29:46.230Z,26.03
2017-09-29T12:30:56.610Z,26.01
2017-09-29T12:32:06.325Z,26.06
2017-09-29T12:33:16.361Z,25.94
2017-09-29T12:34:26.760Z,26
2017-09-29T12:35:36.859Z,26.01
2017-09-29T12:36:46.914Z,25.99
2017-09-29T12:37:57.308Z,26.04
2017-09-29T12:39:07.040Z,26
2017-09-29T12:40:17.401Z,25.96
2017-09-29T12:41:27.787Z,25.96
2017-09-29T12:42:38.232Z,25.96
2017-09-29T12:43:48.250Z,26.03
2017-09-29T12:44:58.594Z,26.01
2017-09-29T12:46:08.958Z,26
2017-09-29T12:47:19.009Z,25.97
2017-09-29T12:48:29.407Z,26.01
2017-09-29T12:49:39.762Z,25.94
2017-09-29T12:50:50.965Z,25.89
2017-09-29T12:52:01.022Z,25.86
2017-09-29T12:53:11.426Z,25.81
2017-09-29T12:54:21.433Z,25.82
2017-09-29T12:55:31.476Z,25.81
2017-09-29T12:56:42.551Z,25.84
2017-09-29T12:57:53.719Z,25.79
2017-09-29T12:59:04.135Z,25.91
2017-09-29T13:00:14.498Z,25.97
2017-09-29T13:01:24.843Z,25.93
2017-09-29T13:02:35.198Z,26.04
2017-09-29T13:03:45.554Z,25.97
2017-09-29T13:04:55.961Z,26.03
2017-09-29T13:06:06.330Z,26.04
2017-09-29T13:07:16.687Z,26.04
2017-09-29T13:08:26.752Z,26.01
2017-09-29T13:09:37.101Z,26.09
2017-09-29T13:10:47.501Z,26.09
2017-09-29T13:11:57.872Z,25.97
2017-09-29T13:13:08.235Z,25.96
2017-09-29T13:14:18.269Z,25.91
2017-09-29T13:15:28.630Z,25.94
2017-09-29T13:16:38.770Z,26.03
2017-09-29T13:17:49.136Z,26.11
2017-09-29T13:18:59.505Z,26
2017-09-29T13:20:09.879Z,25.97
2017-09-29T13:21:19.900Z,26
2017-09-29T13:22:29.974Z,25.99
2017-09-29T13:23:40.006Z,26.07
2017-09-29T13:24:50.043Z,26.15
2017-09-29T13:26:00.401Z,26.34
2017-09-29T13:27:10.753Z,26.3
2017-09-29T13:28:21.110Z,26.24
2017-09-29T13:29:31.476Z,26
2017-09-29T13:30:41.832Z,25.67
2017-09-29T13:31:52.195Z,25.52
2017-09-29T13:33:02.570Z,25.62
2017-09-29T13:34:12.932Z,25.59
2017-09-29T13:35:22.997Z,25.47
2017-09-29T13:36:33.080Z,25.51
2017-09-29T13:37:43.442Z,25.22
2017-09-29T13:39:05.620Z,25.32
2017-09-29T13:40:15.966Z,25.44
2017-09-29T13:41:26.350Z,25.51
2017-09-29T13:42:36.730Z,25.41
2017-09-29T13:43:47.487Z,25.44
2017-09-29T13:44:58.069Z,25.37
2017-09-29T13:46:08.446Z,25.37
2017-09-29T13:47:20.160Z,25.47
2017-09-29T13:48:30.531Z,25.3
2017-09-29T13:49:40.912Z,25.33
2017-09-29T13:50:50.954Z,25.27
2017-09-29T13:52:01.327Z,25.32
2017-09-29T13:53:11.690Z,25.37
2017-09-29T13:54:22.445Z,25.3
2017-09-29T13:55:32.479Z,25.27
2017-09-29T13:56:42.823Z,25.27
2017-09-29T13:57:52.847Z,25.2
2017-09-29T13:59:02.890Z,25.24
2017-09-29T14:00:13.231Z,25.14
2017-09-29T14:01:22.962Z,25.12
2017-09-29T14:02:33.345Z,25.11
2017-09-29T14:03:43.711Z,25.29
2017-09-29T14:04:53.743Z,25.22
2017-09-29T14:06:04.107Z,25.22
2017-09-29T14:07:15.097Z,25.17
2017-09-29T14:08:25.124Z,25.15
2017-09-29T14:09:35.487Z,25.11
2017-09-29T14:10:45.847Z,25.07
2017-09-29T14:11:55.882Z,25.01
2017-09-29T14:13:06.275Z,25.01
2017-09-29T14:14:16.323Z,25.12
2017-09-29T14:15:26.711Z,25.05
2017-09-29T14:16:36.762Z,25.07
2017-09-29T14:17:46.478Z,25
2017-09-29T14:18:56.901Z,24.94
2017-09-29T14:20:07.272Z,24.89
2017-09-29T14:21:17.005Z,24.92
2017-09-29T14:22:27.375Z,24.86
2017-09-29T14:23:37.756Z,24.83
2017-09-29T14:24:47.838Z,24.85
2017-09-29T14:25:58.186Z,24.71
2017-09-29T14:27:08.630Z,24.77
2017-09-29T14:28:18.378Z,24.58
2017-09-29T14:29:28.752Z,24.55
2017-09-29T14:30:39.187Z,24.59
2017-09-29T14:31:49.558Z,24.63
2017-09-29T14:32:59.605Z,24.59
2017-09-29T14:34:09.954Z,24.54
2017-09-29T14:35:20.311Z,24.51
2017-09-29T14:36:31.673Z,24.46
2017-09-29T14:37:41.737Z,24.45
2017-09-29T14:38:51.472Z,24.51
2017-09-29T14:40:01.850Z,24.45
2017-09-29T14:41:12.155Z,24.44
2017-09-29T14:42:22.264Z,24.36
2017-09-29T14:43:32.653Z,24.3
2017-09-29T14:44:43.023Z,24.29
2017-09-29T14:45:53.378Z,24.27
2017-09-29T14:47:03.725Z,24.29
2017-09-29T14:48:14.082Z,24.29
2017-09-29T14:49:24.452Z,24.17
2017-09-29T14:50:34.955Z,24.14
2017-09-29T14:51:45.644Z,24.09
2017-09-29T14:52:56.391Z,23.99
2017-09-29T14:54:06.711Z,24.08
2017-09-29T14:55:17.177Z,23.9
2017-09-29T14:56:27.552Z,24.03
2017-09-29T14:57:37.930Z,23.89
2017-09-29T14:58:48.312Z,23.82
2017-09-29T14:59:58.692Z,23.87
2017-09-29T15:01:09.064Z,23.78
2017-09-29T15:02:19.422Z,23.79
2017-09-29T15:03:29.460Z,23.74
2017-09-29T15:04:39.860Z,23.63
2017-09-29T15:05:50.209Z,23.6
2017-09-29T15:07:00.576Z,23.57
2017-09-29T15:08:10.938Z,23.57
2017-09-29T15:09:21.267Z,23.57
2017-09-29T15:10:31.676Z,23.56
2017-09-29T15:11:42.066Z,23.38
2017-09-29T15:12:52.409Z,23.37
2017-09-29T15:14:02.461Z,23.26
2017-09-29T15:15:12.825Z,23.25
2017-09-29T15:16:23.225Z,23.22
2017-09-29T15:17:33.498Z,23.18
2017-09-29T15:18:43.870Z,23.22
2017-09-29T15:19:54.206Z,23.15
2017-09-29T15:21:04.557Z,23.18
2017-09-29T15:22:14.977Z,23.12
2017-09-29T15:23:26.358Z,23.07
2017-09-29T15:24:36.711Z,23.06
2017-09-29T15:25:47.075Z,23.1
2017-09-29T15:26:57.417Z,23.04
2017-09-29T15:28:07.822Z,22.92
2017-09-29T15:29:17.862Z,22.99
2017-09-29T15:30:28.215Z,22.88
2017-09-29T15:31:38.560Z,22.86
2017-09-29T15:32:48.604Z,22.76
2017-09-29T15:33:59.024Z,22.71
2017-09-29T15:35:09.062Z,22.51
2017-09-29T15:36:19.113Z,22.57
2017-09-29T15:37:29.468Z,22.46
2017-09-29T15:38:39.542Z,22.42
2017-09-29T15:39:49.929Z,22.26
2017-09-29T15:41:00.291Z,22.3
2017-09-29T15:42:10.337Z,22.16
2017-09-29T15:43:20.751Z,22.16
2017-09-29T15:44:31.102Z,22.08
2017-09-29T15:45:41.460Z,21.99
2017-09-29T15:46:51.593Z,21.96
2017-09-29T15:48:01.325Z,21.83
2017-09-29T15:49:11.696Z,21.8
2017-09-29T15:50:22.050Z,21.8
2017-09-29T15:51:32.430Z,21.71
2017-09-29T15:52:43.015Z,21.7
2017-09-29T15:53:53.363Z,21.7
2017-09-29T15:55:03.380Z,21.62
2017-09-29T15:56:13.733Z,21.62
2017-09-29T15:57:23.851Z,21.53
2017-09-29T15:58:34.206Z,21.48
2017-09-29T15:59:44.269Z,21.43
2017-09-29T16:00:54.296Z,21.34
2017-09-29T16:02:04.338Z,21.18
2017-09-29T16:03:14.702Z,21.16
2017-09-29T16:04:25.041Z,21.19
2017-09-29T16:05:35.382Z,21.06
2017-09-29T16:06:45.753Z,20.93
2017-09-29T16:07:55.787Z,20.94
2017-09-29T16:09:05.696Z,20.94
2017-09-29T16:10:15.727Z,20.79
2017-09-29T16:11:26.076Z,20.79
2017-09-29T16:12:36.460Z,20.76
2017-09-29T16:13:46.511Z,20.71
2017-09-29T16:14:56.914Z,20.66
2017-09-29T16:16:06.967Z,20.48
2017-09-29T16:17:17.336Z,20.49
2017-09-29T16:18:27.708Z,20.42
2017-09-29T16:19:38.069Z,20.48
2017-09-29T16:20:48.094Z,20.37
2017-09-29T16:21:57.814Z,20.37
2017-09-29T16:23:08.145Z,20.41
2017-09-29T16:24:18.036Z,20.29
2017-09-29T16:25:28.349Z,20.19